Time;durP1;ratioP1;P1;durP2;ratioP2;P2;SDS_P1;SDS_P2;PMS_P1;PMS_P2;Temp;Humidity;BMP_temperature;BMP_pressure;BME280_temperature;BME280_humidity;BME280_pressure;Samples;Min_cycle;Max_cycle;Signal;HPM_P1;HPM_P2
2021/09/02 00:00:54;;;;;;;5.53;3.77;;;;;;;13.83;100.00;101710.97;5131919;27;20164;-73
2021/09/02 00:03:19;;;;;;;8.63;4.00;;;;;;;13.85;100.00;101695.81;5131668;27;20533;-73
2021/09/02 00:05:45;;;;;;;4.87;3.73;;;;;;;13.83;100.00;101706.31;5131444;27;20283;-73
2021/09/02 00:08:10;;;;;;;6.67;3.80;;;;;;;13.80;100.00;101700.59;5131622;27;20176;-73
2021/09/02 00:10:35;;;;;;;4.00;3.60;;;;;;;13.73;100.00;101690.00;5131729;28;20176;-73
2021/09/02 00:13:01;;;;;;;6.67;4.00;;;;;;;13.67;100.00;101697.53;5131778;28;20172;-73
2021/09/02 00:15:26;;;;;;;4.77;3.70;;;;;;;13.67;100.00;101713.19;5131510;28;20180;-73
2021/09/02 00:17:51;;;;;;;8.47;3.67;;;;;;;13.64;100.00;101867.59;5131633;27;20276;-73
2021/09/02 00:20:17;;;;;;;6.40;3.93;;;;;;;13.60;100.00;101820.69;5131558;28;20181;-73
2021/09/02 00:22:42;;;;;;;5.83;4.53;;;;;;;13.61;100.00;101741.84;5113293;28;20267;-73
2021/09/02 00:25:09;;;;;;;5.63;4.13;;;;;;;13.58;100.00;101734.19;5131322;28;20603;-73
2021/09/02 00:27:34;;;;;;;4.27;3.90;;;;;;;13.56;100.00;101715.28;5131528;28;20232;-73
2021/09/02 00:30:00;;;;;;;3.67;3.37;;;;;;;13.57;100.00;101710.59;5131616;28;20180;-73
2021/09/02 00:32:25;;;;;;;5.13;4.13;;;;;;;13.51;100.00;101720.88;5113015;28;20208;-73
2021/09/02 00:34:51;;;;;;;4.70;4.17;;;;;;;13.49;100.00;101714.88;5131317;28;20181;-73
2021/09/02 00:37:16;;;;;;;4.03;3.67;;;;;;;13.51;100.00;101714.56;5113297;28;20187;-73
2021/09/02 00:39:41;;;;;;;4.73;3.80;;;;;;;13.48;100.00;101709.66;5131629;28;20568;-73
2021/09/02 00:42:07;;;;;;;4.03;3.67;;;;;;;13.42;100.00;101714.41;5131365;28;20392;-73
2021/09/02 00:44:33;;;;;;;6.87;4.07;;;;;;;13.42;100.00;101708.09;5131102;28;20235;-73
2021/09/02 00:47:00;;;;;;;8.73;4.50;;;;;;;13.40;100.00;101708.41;5133264;27;20168;-73
2021/09/02 00:49:26;;;;;;;7.07;5.13;;;;;;;13.39;100.00;101701.28;5135348;27;20168;-73
2021/09/02 00:51:51;;;;;;;6.27;4.33;;;;;;;13.35;100.00;101701.09;5135201;27;20169;-73
2021/09/02 00:54:17;;;;;;;4.30;3.90;;;;;;;13.29;100.00;101454.44;5134940;27;20164;-73
2021/09/02 00:56:42;;;;;;;6.90;4.20;;;;;;;13.25;100.00;101632.63;5135410;27;20165;-73
2021/09/02 00:59:07;;;;;;;5.07;4.10;;;;;;;13.19;100.00;101625.59;5135011;27;20172;-73
2021/09/02 01:01:33;;;;;;;4.77;3.70;;;;;;;13.08;100.00;101622.16;5134964;27;20216;-73
2021/09/02 01:04:03;;;;;;;10.23;4.87;;;;;;;13.04;100.00;101631.31;5134536;27;20258;-73
2021/09/02 01:06:28;;;;;;;10.80;4.77;;;;;;;12.99;100.00;101610.22;5134902;27;20173;-73
2021/09/02 01:08:54;;;;;;;5.00;4.23;;;;;;;12.98;100.00;101613.28;5135111;27;20642;-73
2021/09/02 01:11:19;;;;;;;6.37;4.60;;;;;;;12.91;100.00;101610.94;5134880;27;20171;-73
2021/09/02 01:13:44;;;;;;;5.97;4.33;;;;;;;12.89;100.00;101624.13;5134940;27;20179;-73
2021/09/02 01:16:10;;;;;;;4.80;4.40;;;;;;;12.83;100.00;101592.38;5134925;27;20184;-73
2021/09/02 01:18:35;;;;;;;5.50;4.97;;;;;;;12.85;100.00;101645.00;5134805;27;20260;-73
2021/09/02 01:21:00;;;;;;;4.90;4.50;;;;;;;12.84;100.00;101643.38;5134594;27;20248;-73
2021/09/02 01:23:26;;;;;;;4.83;4.10;;;;;;;12.81;100.00;101633.84;5134598;27;20667;-73
2021/09/02 01:25:51;;;;;;;5.80;4.90;;;;;;;12.73;100.00;101637.25;5134384;27;20193;-74
2021/09/02 01:28:17;;;;;;;6.60;5.40;;;;;;;12.70;100.00;101634.28;5134570;27;20180;-73
2021/09/02 01:30:43;;;;;;;5.17;4.77;;;;;;;12.73;100.00;101629.03;5134531;27;20180;-73
2021/09/02 01:33:14;;;;;;;6.23;4.57;;;;;;;12.73;100.00;101631.78;5134334;27;20169;-74
2021/09/02 01:35:40;;;;;;;6.10;5.23;;;;;;;12.69;100.00;101632.66;5134146;27;20214;-73
2021/09/02 01:38:07;;;;;;;7.73;6.03;;;;;;;12.68;100.00;101651.03;5134321;27;20177;-73
2021/09/02 01:40:36;;;;;;;5.33;4.83;;;;;;;12.64;100.00;101621.75;5134803;27;20531;-73
2021/09/02 01:43:04;;;;;;;6.83;5.37;;;;;;;12.62;100.00;101621.25;5134155;27;20172;-73
2021/09/02 01:45:30;;;;;;;12.20;5.97;;;;;;;12.64;100.00;101619.84;5134283;27;20196;-73
2021/09/02 01:47:57;;;;;;;6.80;5.70;;;;;;;12.62;100.00;101613.03;5134124;27;20191;-73
2021/09/02 01:50:23;;;;;;;6.87;5.10;;;;;;;12.58;100.00;101618.25;5134101;27;20654;-73
2021/09/02 01:52:54;;;;;;;8.30;5.57;;;;;;;12.59;100.00;101611.69;5133843;27;20532;-73
2021/09/02 01:55:24;;;;;;;5.43;4.93;;;;;;;12.62;100.00;101619.31;5133859;27;20245;-73
2021/09/02 01:57:50;;;;;;;10.07;5.50;;;;;;;12.66;100.00;101627.75;5133657;27;20206;-73
2021/09/02 02:00:18;;;;;;;7.40;6.00;;;;;;;12.65;100.00;101626.94;5133785;27;20535;-73
2021/09/02 02:02:43;;;;;;;6.57;5.87;;;;;;;12.73;100.00;101622.72;5135044;27;20220;-73
2021/09/02 02:05:10;;;;;;;12.53;5.47;;;;;;;12.78;100.00;101617.97;5139208;27;20201;-73
2021/09/02 02:07:40;;;;;;;8.60;6.60;;;;;;;12.81;100.00;101622.88;5134512;27;20207;-73
2021/09/02 02:10:09;;;;;;;10.10;6.07;;;;;;;12.84;100.00;101618.69;5133859;27;20192;-73
2021/09/02 02:12:35;;;;;;;6.40;5.70;;;;;;;12.84;100.00;101624.19;5134044;27;20169;-73
2021/09/02 02:15:00;;;;;;;6.07;5.53;;;;;;;12.88;100.00;101621.69;5133762;27;20632;-73
2021/09/02 02:17:26;;;;;;;10.20;7.40;;;;;;;12.91;100.00;101630.13;5115485;27;20187;-73
2021/09/02 02:19:51;;;;;;;12.20;6.67;;;;;;;12.94;100.00;101629.53;5133702;27;20660;-73
2021/09/02 02:22:16;;;;;;;7.73;5.90;;;;;;;12.95;100.00;101633.09;5133444;27;20168;-73
2021/09/02 02:24:42;;;;;;;7.10;5.00;;;;;;;12.97;100.00;101625.38;5133118;27;20200;-73
2021/09/02 02:27:07;;;;;;;8.00;7.07;;;;;;;13.00;100.00;101633.81;5133754;27;20172;-73
2021/09/02 02:29:33;;;;;;;9.27;6.60;;;;;;;12.99;100.00;101629.44;5133317;27;20176;-73
2021/09/02 02:31:58;;;;;;;7.87;7.00;;;;;;;13.04;100.00;101634.06;5133262;27;20619;-73
2021/09/02 02:34:24;;;;;;;9.20;5.43;;;;;;;13.05;100.00;101622.78;5133013;27;20749;-73
2021/09/02 02:36:49;;;;;;;11.10;7.33;;;;;;;13.09;100.00;101631.22;5114813;27;20181;-73
2021/09/02 02:39:14;;;;;;;10.23;6.53;;;;;;;13.15;100.00;101631.94;5132869;27;20215;-73
2021/09/02 02:41:40;;;;;;;6.57;5.97;;;;;;;13.19;100.00;101635.75;5133042;27;20620;-74
2021/09/02 02:44:06;;;;;;;10.57;6.73;;;;;;;13.22;100.00;101629.66;5132652;27;20639;-73
2021/09/02 02:46:31;;;;;;;6.33;5.73;;;;;;;13.24;100.00;101644.72;5132792;27;20169;-73
2021/09/02 02:48:57;;;;;;;8.50;6.80;;;;;;;13.28;100.00;101640.25;5132541;27;20502;-73
2021/09/02 02:51:23;;;;;;;13.30;7.73;;;;;;;13.33;100.00;101644.84;5132836;27;20177;-73
2021/09/02 02:53:49;;;;;;;14.20;7.03;;;;;;;13.35;100.00;101645.38;5132616;27;20214;-73
2021/09/02 02:56:14;;;;;;;7.40;6.73;;;;;;;13.34;100.00;101639.06;5132990;27;20196;-74
2021/09/02 02:58:39;;;;;;;8.00;6.17;;;;;;;13.38;100.00;101633.78;5114241;27;20187;-74
2021/09/02 03:01:05;;;;;;;11.27;6.70;;;;;;;13.39;100.00;101621.69;5132618;27;20293;-73
2021/09/02 03:03:30;;;;;;;8.57;6.53;;;;;;;13.39;100.00;101630.72;5132728;27;20229;-73
2021/09/02 03:05:55;;;;;;;9.77;6.97;;;;;;;13.43;100.00;101625.44;5132357;27;20208;-73
2021/09/02 03:08:21;;;;;;;8.63;7.00;;;;;;;13.47;100.00;101626.50;5133100;27;20251;-73
2021/09/02 03:10:46;;;;;;;12.80;6.63;;;;;;;13.48;100.00;101622.63;5131612;27;20179;-74
2021/09/02 03:13:11;;;;;;;9.43;6.00;;;;;;;13.45;100.00;101619.66;5132258;27;20569;-73
2021/09/02 03:15:37;;;;;;;9.00;6.03;;;;;;;13.43;100.00;101619.97;5132100;27;20625;-73
2021/09/02 03:18:03;;;;;;;10.50;7.50;;;;;;;13.47;100.00;101611.94;5132206;27;20215;-73
2021/09/02 03:20:29;;;;;;;10.43;5.93;;;;;;;13.50;100.00;101630.56;5132172;27;20172;-73
2021/09/02 03:22:55;;;;;;;12.50;7.07;;;;;;;13.50;100.00;101636.88;5132124;27;20793;-74
2021/09/02 03:25:20;;;;;;;7.63;6.87;;;;;;;13.48;100.00;101606.16;5132226;27;20234;-73
2021/09/02 03:27:46;;;;;;;10.70;7.40;;;;;;;13.49;100.00;101628.94;5132084;27;20176;-73
2021/09/02 03:30:12;;;;;;;8.13;5.60;;;;;;;13.55;100.00;101628.53;5132090;27;20172;-73
2021/09/02 03:32:38;;;;;;;10.37;6.20;;;;;;;13.59;100.00;101636.97;5132167;27;20411;-73
2021/09/02 03:35:05;;;;;;;8.77;6.83;;;;;;;13.58;100.00;101627.09;5131915;27;20172;-73
2021/09/02 03:37:31;;;;;;;10.33;6.10;;;;;;;13.59;100.00;101626.78;5131966;27;20175;-74
2021/09/02 03:39:56;;;;;;;7.13;6.33;;;;;;;13.58;100.00;101658.13;5131867;27;20184;-73
2021/09/02 03:42:21;;;;;;;9.03;6.50;;;;;;;13.57;100.00;101644.69;5131982;27;20260;-73
2021/09/02 03:44:47;;;;;;;8.57;6.03;;;;;;;13.60;100.00;101636.69;5109290;28;20291;-73
2021/09/02 03:47:12;;;;;;;7.43;5.93;;;;;;;13.64;100.00;101640.47;5127472;27;20627;-73
2021/09/02 03:49:37;;;;;;;7.53;6.03;;;;;;;13.66;100.00;101640.97;5132077;27;20594;-74
2021/09/02 03:52:03;;;;;;;7.33;5.50;;;;;;;13.70;100.00;101643.91;5131552;27;20641;-74
2021/09/02 03:54:28;;;;;;;9.77;5.67;;;;;;;13.75;100.00;101641.09;5131886;27;20176;-73
2021/09/02 03:56:54;;;;;;;12.20;7.07;;;;;;;13.82;100.00;101635.19;5131499;27;20596;-73
2021/09/02 03:59:19;;;;;;;8.20;5.57;;;;;;;13.85;100.00;101638.13;5131822;27;20180;-73
2021/09/02 04:01:45;;;;;;;8.87;6.40;;;;;;;13.86;100.00;101644.44;5132205;27;20587;-73
2021/09/02 04:04:10;;;;;;;5.73;5.13;;;;;;;13.82;100.00;101632.44;5131988;27;20191;-73
2021/09/02 04:06:35;;;;;;;8.30;5.90;;;;;;;13.85;100.00;101640.88;5132516;27;20176;-73
2021/09/02 04:09:00;;;;;;;7.73;6.13;;;;;;;13.91;100.00;101647.09;5131762;27;20180;-74
2021/09/02 04:11:26;;;;;;;7.87;5.70;;;;;;;13.96;100.00;101655.25;5132033;28;20172;-73
2021/09/02 04:13:51;;;;;;;8.33;6.03;;;;;;;14.05;100.00;101649.88;5131775;28;20218;-73
2021/09/02 04:16:16;;;;;;;9.30;5.27;;;;;;;14.06;100.00;101657.81;5131770;28;20176;-74
2021/09/02 04:18:42;;;;;;;10.27;6.63;;;;;;;14.08;100.00;101647.31;5131740;28;20566;-73
2021/09/02 04:21:08;;;;;;;9.80;5.90;;;;;;;14.12;100.00;101655.75;5133538;27;20236;-74
2021/09/02 04:23:35;;;;;;;8.37;5.87;;;;;;;14.17;100.00;101650.94;5135894;27;20177;-73
2021/09/02 04:26:02;;;;;;;12.67;5.47;;;;;;;14.21;100.00;101648.44;5136015;27;20238;-74
2021/09/02 04:28:27;;;;;;;8.27;5.80;;;;;;;14.24;100.00;101650.56;5136185;27;20172;-74
2021/09/02 04:30:53;;;;;;;7.97;5.70;;;;;;;14.26;100.00;101649.13;5117910;27;20179;-74
2021/09/02 04:33:18;;;;;;;7.27;5.27;;;;;;;14.30;100.00;101647.38;5136697;27;20183;-74
2021/09/02 04:35:44;;;;;;;5.30;4.80;;;;;;;14.29;100.00;101647.69;5136128;27;20646;-73
2021/09/02 04:38:09;;;;;;;6.07;4.87;;;;;;;14.27;100.00;101649.94;5136286;27;20514;-73
2021/09/02 04:40:38;;;;;;;7.13;4.80;;;;;;;14.30;100.00;101647.38;5136239;27;20312;-74
2021/09/02 04:43:03;;;;;;;7.00;5.27;;;;;;;14.30;100.00;101646.56;5136028;27;20224;-74
2021/09/02 04:45:29;;;;;;;7.70;5.07;;;;;;;14.29;100.00;101647.69;5117116;27;20295;-74
2021/09/02 04:47:54;;;;;;;13.50;5.03;;;;;;;14.29;100.00;101658.69;5117200;27;20177;-74
2021/09/02 04:50:20;;;;;;;5.40;4.20;;;;;;;14.25;100.00;101658.50;5135604;27;20173;-73
2021/09/02 04:52:45;;;;;;;9.07;6.20;;;;;;;14.22;100.00;101658.31;5135447;27;20168;-73
2021/09/02 04:55:11;;;;;;;6.90;4.90;;;;;;;14.20;100.00;101650.38;5135397;27;20176;-73
2021/09/02 04:57:37;;;;;;;8.60;5.90;;;;;;;14.16;100.00;101657.56;5135395;27;20631;-73
2021/09/02 05:00:04;;;;;;;10.10;6.10;;;;;;;14.17;100.00;101656.44;5135460;27;20541;-74
2021/09/02 05:02:30;;;;;;;7.47;4.83;;;;;;;14.19;100.00;101653.44;5135458;27;20179;-73
2021/09/02 05:04:55;;;;;;;5.93;5.33;;;;;;;14.21;100.00;101651.19;5134795;27;20215;-74
2021/09/02 05:07:21;;;;;;;7.73;5.50;;;;;;;14.27;100.00;101649.94;5135245;27;20177;-74
2021/09/02 05:09:46;;;;;;;7.03;4.97;;;;;;;14.36;100.00;101661.84;5134879;27;20651;-74
2021/09/02 05:12:11;;;;;;;7.00;5.67;;;;;;;14.41;100.00;101659.00;5134989;27;20176;-73
2021/09/02 05:14:37;;;;;;;6.73;5.77;;;;;;;14.41;100.00;101661.75;5135124;27;20624;-73
2021/09/02 05:17:02;;;;;;;10.73;6.27;;;;;;;14.47;100.00;101668.81;5116810;27;20176;-74
2021/09/02 05:19:28;;;;;;;8.33;5.80;;;;;;;14.49;100.00;101657.50;5135525;27;20236;-73
2021/09/02 05:21:53;;;;;;;6.40;5.80;;;;;;;14.51;100.00;101667.06;5116615;27;20186;-74
2021/09/02 05:24:18;;;;;;;10.93;4.93;;;;;;;14.49;100.00;101665.75;5134876;27;20197;-73
2021/09/02 05:26:44;;;;;;;5.90;5.13;;;;;;;14.48;100.00;101664.94;5134807;27;20173;-74
2021/09/02 05:29:09;;;;;;;8.20;5.50;;;;;;;14.50;100.00;101664.63;5135041;27;20173;-74
2021/09/02 05:31:34;;;;;;;7.00;5.40;;;;;;;14.55;100.00;101667.25;5134829;27;20175;-74
2021/09/02 05:34:00;;;;;;;8.37;4.97;;;;;;;14.57;100.00;101671.31;5133729;27;20233;-74
2021/09/02 05:36:25;;;;;;;5.43;4.70;;;;;;;14.56;100.00;101663.38;5134707;27;20283;-74
2021/09/02 05:38:51;;;;;;;6.03;5.43;;;;;;;14.56;100.00;101660.63;5134574;27;20594;-74
2021/09/02 05:41:16;;;;;;;6.10;5.40;;;;;;;14.55;100.00;101664.50;5134389;27;20739;-74
2021/09/02 05:43:41;;;;;;;8.07;6.07;;;;;;;14.53;100.00;101669.50;5134443;27;20529;-73
2021/09/02 05:46:07;;;;;;;6.67;5.27;;;;;;;14.52;100.00;101667.88;5134317;27;20215;-73
2021/09/02 05:48:32;;;;;;;9.17;6.13;;;;;;;14.51;100.00;101843.06;5115986;27;20176;-74
2021/09/02 05:50:57;;;;;;;7.20;6.10;;;;;;;14.51;100.00;101737.75;5134525;27;20173;-73
2021/09/02 05:53:23;;;;;;;7.57;5.57;;;;;;;14.52;100.00;101693.44;5134500;27;20633;-74
2021/09/02 05:55:50;;;;;;;10.90;5.87;;;;;;;14.54;100.00;101701.38;5134307;27;20176;-74
2021/09/02 05:58:16;;;;;;;7.07;5.23;;;;;;;14.55;100.00;101701.06;5134487;27;20180;-74
2021/09/02 06:00:42;;;;;;;9.60;5.97;;;;;;;14.56;100.00;101675.19;5134284;27;20774;-74
2021/09/02 06:03:07;;;;;;;9.73;6.00;;;;;;;14.57;100.00;101679.56;5134210;27;20255;-74
2021/09/02 06:05:32;;;;;;;11.60;5.57;;;;;;;14.63;100.00;101682.22;5115164;27;20227;-74
2021/09/02 06:07:58;;;;;;;8.67;6.53;;;;;;;14.66;100.00;101676.94;5134134;27;20172;-73
2021/09/02 06:10:23;;;;;;;9.23;5.53;;;;;;;14.66;100.00;101674.16;5134181;27;20225;-73
2021/09/02 06:12:49;;;;;;;6.10;4.90;;;;;;;14.63;100.00;101685.78;5134335;27;20263;-73
2021/09/02 06:15:15;;;;;;;7.37;5.10;;;;;;;14.54;100.00;101688.44;5134373;27;20211;-73
2021/09/02 06:17:40;;;;;;;7.90;5.60;;;;;;;14.51;100.00;101688.25;5134167;27;20175;-74
2021/09/02 06:20:07;;;;;;;6.73;5.73;;;;;;;14.48;100.00;101697.13;5133905;27;20168;-72
2021/09/02 06:22:33;;;;;;;6.07;5.07;;;;;;;14.52;100.00;101689.88;5133743;27;20177;-72
2021/09/02 06:25:00;;;;;;;6.77;5.60;;;;;;;14.56;100.00;101696.38;5133349;27;20198;-72
2021/09/02 06:27:25;;;;;;;8.93;6.37;;;;;;;14.59;100.00;101704.84;5133637;27;20172;-73
2021/09/02 06:29:51;;;;;;;7.97;5.30;;;;;;;14.66;100.00;101698.13;5133460;27;20184;-72
2021/09/02 06:32:16;;;;;;;10.73;6.20;;;;;;;14.76;100.00;101697.91;5133505;27;20540;-72
2021/09/02 06:34:41;;;;;;;8.03;5.60;;;;;;;14.76;100.00;101695.97;5133641;27;20521;-72
2021/09/02 06:37:07;;;;;;;11.33;4.90;;;;;;;14.72;100.00;101703.19;5133443;27;20521;-72
2021/09/02 06:39:35;;;;;;;12.50;6.07;;;;;;;14.66;100.00;101687.94;5133522;27;20168;-75
2021/09/02 06:42:01;;;;;;;12.67;6.77;;;;;;;14.63;100.00;101694.06;5133271;27;20169;-75
2021/09/02 06:44:26;;;;;;;16.13;5.83;;;;;;;14.63;100.00;101699.56;5132353;27;20216;-76
2021/09/02 06:46:51;;;;;;;8.00;6.00;;;;;;;14.63;100.00;101696.00;5133238;27;20200;-76
2021/09/02 06:49:19;;;;;;;9.17;6.13;;;;;;;14.65;100.00;101699.25;5133658;27;20183;-74
2021/09/02 06:51:45;;;;;;;10.77;6.43;;;;;;;14.66;100.00;101700.88;5130778;27;20767;-74
2021/09/02 06:54:10;;;;;;;8.10;7.30;;;;;;;14.72;100.00;101694.13;5123719;27;20268;-77
2021/09/02 06:56:35;;;;;;;11.20;7.37;;;;;;;14.73;100.00;101693.81;5132058;27;20187;-80
2021/09/02 06:59:01;;;;;;;7.07;6.00;;;;;;;14.79;100.00;101694.53;5126755;27;20213;-73
2021/09/02 07:01:26;;;;;;;12.80;6.37;;;;;;;14.85;100.00;101705.09;5133281;27;20172;-72
2021/09/02 07:03:51;;;;;;;8.03;6.93;;;;;;;14.88;100.00;101745.75;5132606;27;20200;-73
2021/09/02 07:06:17;;;;;;;7.50;6.77;;;;;;;14.92;100.00;101704.69;5133050;27;20557;-73
2021/09/02 07:08:42;;;;;;;8.27;7.33;;;;;;;14.92;100.00;101699.19;5133058;27;20254;-73
2021/09/02 07:11:07;;;;;;;10.13;6.30;;;;;;;14.98;100.00;101705.38;5132717;27;20229;-72
2021/09/02 07:13:33;;;;;;;7.43;5.93;;;;;;;15.06;100.00;101704.66;5133331;27;20229;-73
2021/09/02 07:15:59;;;;;;;8.43;6.93;;;;;;;15.11;100.00;101712.78;5133040;27;20177;-72
2021/09/02 07:18:24;;;;;;;10.53;6.50;;;;;;;15.13;100.00;101705.84;5133089;27;20172;-73
2021/09/02 07:20:49;;;;;;;13.50;7.03;;;;;;;15.25;100.00;101713.56;5132940;27;20199;-73
2021/09/02 07:23:15;;;;;;;12.63;7.87;;;;;;;15.34;100.00;101722.72;5114229;27;20176;-73
2021/09/02 07:25:40;;;;;;;8.87;7.60;;;;;;;15.43;100.00;101722.75;5132502;27;20196;-73
2021/09/02 07:28:05;;;;;;;8.87;7.10;;;;;;;15.57;100.00;101711.66;5132970;27;20208;-73
2021/09/02 07:30:31;;;;;;;11.67;9.57;;;;;;;15.54;100.00;101715.06;5132821;27;20598;-72
2021/09/02 07:32:57;;;;;;;11.53;10.17;;;;;;;15.56;100.00;101724.63;5132689;27;20176;-72
2021/09/02 07:35:23;;;;;;;9.80;8.80;;;;;;;15.57;100.00;101715.25;5132613;27;20196;-73
2021/09/02 07:37:48;;;;;;;14.57;10.23;;;;;;;15.62;100.00;101720.69;5132779;27;20207;-73
2021/09/02 07:40:13;;;;;;;10.17;8.47;;;;;;;15.74;100.00;101729.16;5127363;27;20241;-73
2021/09/02 07:42:39;;;;;;;9.47;8.60;;;;;;;15.67;100.00;101726.03;5130405;27;20330;-73
2021/09/02 07:45:05;;;;;;;15.17;9.70;;;;;;;15.72;100.00;101728.66;5117662;27;20362;-72
2021/09/02 07:47:33;;;;;;;8.60;7.80;;;;;;;15.72;100.00;101739.69;5132167;27;20631;-72
2021/09/02 07:49:59;;;;;;;10.33;8.73;;;;;;;15.62;100.00;101728.09;5132147;27;20173;-72
2021/09/02 07:52:25;;;;;;;15.07;8.07;;;;;;;15.61;100.00;101734.75;5132751;27;20374;-73
2021/09/02 07:54:50;;;;;;;9.53;7.43;;;;;;;15.62;100.00;101744.63;5128009;27;20669;-73
2021/09/02 07:57:15;;;;;;;12.13;7.80;;;;;;;15.49;100.00;101738.03;5129184;27;20184;-73
2021/09/02 07:59:41;;;;;;;9.80;6.73;;;;;;;15.57;100.00;101734.53;5132788;27;20169;-72
2021/09/02 08:02:06;;;;;;;10.80;8.73;;;;;;;15.63;100.00;101740.78;5133292;27;20187;-72
2021/09/02 08:04:32;;;;;;;11.73;8.63;;;;;;;15.63;100.00;101736.06;5132922;27;20204;-73
2021/09/02 08:06:58;;;;;;;12.43;8.70;;;;;;;15.60;100.00;101730.34;5115058;27;20192;-72
2021/09/02 08:09:23;;;;;;;13.97;10.10;;;;;;;15.50;100.00;101736.91;5132907;28;20225;-72
2021/09/02 08:11:49;;;;;;;10.93;7.47;;;;;;;15.54;100.00;101746.19;5133135;28;20247;-73
2021/09/02 08:14:14;;;;;;;12.70;8.07;;;;;;;15.62;100.00;101750.97;5133045;28;20200;-73
2021/09/02 08:16:39;;;;;;;12.63;8.93;;;;;;;15.72;100.00;101734.16;5133220;28;20204;-73
2021/09/02 08:19:05;;;;;;;9.30;8.40;;;;;;;15.85;100.00;101746.25;5118161;28;20264;-73
2021/09/02 08:21:30;;;;;;;9.23;8.17;;;;;;;15.94;100.00;101752.63;5137381;28;20252;-72
2021/09/02 08:23:58;;;;;;;14.27;8.30;;;;;;;16.03;100.00;101747.97;5132410;27;20179;-72
2021/09/02 08:26:25;;;;;;;10.43;7.70;;;;;;;15.98;100.00;101755.56;5132260;28;20204;-72
2021/09/02 08:28:50;;;;;;;13.73;7.50;;;;;;;15.91;100.00;101750.53;5131872;27;20182;-72
2021/09/02 08:31:15;;;;;;;8.43;7.63;;;;;;;15.85;100.00;101751.75;5131574;28;20172;-73
2021/09/02 08:33:41;;;;;;;12.60;8.67;;;;;;;15.75;100.00;101752.81;5131316;28;20175;-73
2021/09/02 08:36:06;;;;;;;12.03;8.33;;;;;;;15.68;100.00;101755.22;5131199;28;20421;-73
2021/09/02 08:38:31;;;;;;;12.70;8.27;;;;;;;15.35;100.00;101748.31;5131563;28;20180;-73
2021/09/02 08:40:57;;;;;;;13.33;8.03;;;;;;;15.46;100.00;101755.19;5131394;28;20537;-73
2021/09/02 08:43:23;;;;;;;14.97;8.33;;;;;;;15.74;100.00;101753.94;5131040;28;20191;-73
2021/09/02 08:45:49;;;;;;;8.73;7.90;;;;;;;15.81;100.00;101755.47;5130875;27;20666;-72
2021/09/02 08:48:14;;;;;;;12.93;8.80;;;;;;;15.85;100.00;101746.25;5112783;28;20527;-73
2021/09/02 08:50:40;;;;;;;11.77;8.73;;;;;;;15.84;100.00;101750.13;5131096;28;20380;-74
2021/09/02 08:53:07;;;;;;;11.47;8.50;;;;;;;16.01;100.00;101758.50;5131273;28;20179;-74
2021/09/02 08:55:35;;;;;;;8.93;8.10;;;;;;;16.09;100.00;101764.41;5131316;28;20215;-74
2021/09/02 08:58:00;;;;;;;10.80;7.50;;;;;;;16.26;100.00;101764.47;5131240;28;20182;-74
2021/09/02 09:00:26;;;;;;;9.27;8.37;;;;;;;16.28;100.00;101757.50;5131176;28;20247;-74
2021/09/02 09:03:04;;;;;;;8.97;8.07;;;;;;;16.04;100.00;101757.88;5131233;28;20196;-74
2021/09/02 09:05:34;;;;;;;19.93;8.50;;;;;;;15.88;100.00;101762.16;5130968;27;20674;-74
2021/09/02 09:08:01;;;;;;;10.47;8.27;;;;;;;16.29;100.00;101761.06;5132793;27;20501;-74
2021/09/02 09:10:30;;;;;;;10.37;7.50;;;;;;;16.43;100.00;101766.50;5116490;27;20615;-74
2021/09/02 09:12:57;;;;;;;11.43;8.50;;;;;;;16.46;100.00;101765.84;5135210;27;20175;-74
2021/09/02 09:15:30;;;;;;;13.33;7.93;;;;;;;16.65;100.00;101766.44;5134521;27;20181;-75
2021/09/02 09:18:17;;;;;;;10.70;8.17;;;;;;;16.71;100.00;101754.13;5116365;27;20204;-75
2021/09/02 09:20:43;;;;;;;9.67;7.73;;;;;;;16.67;100.00;101755.91;5116395;27;20478;-74
2021/09/02 09:23:09;;;;;;;8.87;7.57;;;;;;;16.61;100.00;101757.94;5134664;27;20620;-74
2021/09/02 09:25:34;;;;;;;10.50;7.83;;;;;;;16.58;100.00;101755.84;5134598;27;20202;-74
2021/09/02 09:28:00;;;;;;;10.90;8.80;;;;;;;16.54;100.00;101754.84;5125402;27;20181;-74
2021/09/02 09:30:34;;;;;;;10.20;8.53;;;;;;;16.62;100.00;101754.06;5126252;27;20212;-74
2021/09/02 09:33:05;;;;;;;9.77;8.63;;;;;;;16.76;100.00;101751.22;5133482;27;20180;-74
2021/09/02 09:35:36;;;;;;;8.90;8.00;;;;;;;16.87;100.00;101746.19;5134771;27;20629;-74
2021/09/02 09:38:05;;;;;;;8.70;7.53;;;;;;;16.86;100.00;101750.91;5134625;27;20177;-74
2021/09/02 09:40:32;;;;;;;9.10;7.47;;;;;;;16.91;100.00;101763.75;5133640;27;20531;-74
2021/09/02 09:43:02;;;;;;;10.50;7.63;;;;;;;17.07;100.00;101828.44;5132294;27;20569;-74
2021/09/02 09:45:44;;;;;;;10.70;7.50;;;;;;;16.85;100.00;101815.53;5127842;27;20208;-74
2021/09/02 09:48:30;;;;;;;9.40;7.63;;;;;;;17.12;100.00;101769.47;5129273;27;20666;-74
2021/09/02 09:51:12;;;;;;;8.83;8.00;;;;;;;17.09;100.00;101754.38;5127622;27;20177;-73
2021/09/02 09:53:39;;;;;;;10.53;8.73;;;;;;;17.00;100.00;101756.28;5124977;27;20219;-74
2021/09/02 09:56:05;;;;;;;13.87;7.87;;;;;;;16.84;100.00;101755.94;5132261;27;20237;-73
2021/09/02 09:58:30;;;;;;;11.10;7.87;;;;;;;16.81;100.00;101750.25;5116147;27;20177;-73
2021/09/02 10:01:01;;;;;;;9.60;8.60;;;;;;;16.85;100.00;101746.53;5133833;27;20169;-73
2021/09/02 10:03:29;;;;;;;7.90;7.30;;;;;;;16.94;100.00;101741.03;5134060;27;20265;-73
2021/09/02 10:05:58;;;;;;;10.40;8.33;;;;;;;17.03;100.00;101744.59;5134493;27;20192;-74
2021/09/02 10:08:24;;;;;;;9.03;8.20;;;;;;;17.01;98.48;101746.88;5135104;27;20169;-74
2021/09/02 10:10:49;;;;;;;12.97;8.07;;;;;;;17.06;100.00;101738.44;5115784;27;20176;-74
2021/09/02 10:13:16;;;;;;;12.60;7.93;;;;;;;17.04;100.00;101737.13;5134372;27;20203;-73
2021/09/02 10:15:42;;;;;;;13.10;8.83;;;;;;;16.99;100.00;101732.59;5133557;27;20212;-74
2021/09/02 10:18:07;;;;;;;8.77;7.87;;;;;;;17.09;100.00;101720.41;5133286;27;20670;-73
2021/09/02 10:20:36;;;;;;;11.23;8.30;;;;;;;16.94;100.00;101716.19;5133706;27;20188;-74
2021/09/02 10:23:03;;;;;;;11.13;9.63;;;;;;;16.83;99.74;101715.69;5134036;27;20651;-73
2021/09/02 10:25:32;;;;;;;11.30;8.63;;;;;;;17.25;100.00;101719.59;5133532;27;20670;-74
2021/09/02 10:28:05;;;;;;;11.60;8.47;;;;;;;17.38;98.79;101717.00;5130680;27;20635;-73
2021/09/02 10:30:32;;;;;;;9.97;8.53;;;;;;;17.53;95.89;101720.06;5113308;27;20176;-74
2021/09/02 10:32:59;;;;;;;9.13;8.23;;;;;;;17.59;96.40;101715.19;5114959;27;20571;-73
2021/09/02 10:35:24;;;;;;;10.83;9.73;;;;;;;17.68;97.33;101713.25;5133000;27;20184;-73
2021/09/02 10:37:53;;;;;;;12.83;8.37;;;;;;;17.75;96.67;101704.44;5120869;27;20185;-73
2021/09/02 10:40:19;;;;;;;9.13;8.20;;;;;;;17.36;96.18;101700.75;5129868;27;20520;-74
2021/09/02 10:42:53;;;;;;;12.03;9.27;;;;;;;17.42;96.66;101709.69;5129125;27;20253;-76
2021/09/02 10:45:30;;;;;;;9.47;8.10;;;;;;;17.39;96.69;101721.38;5131654;27;20190;-74
2021/09/02 10:48:06;;;;;;;11.17;9.60;;;;;;;17.37;96.36;101720.91;5129081;27;20176;-75
2021/09/02 10:50:42;;;;;;;9.70;8.53;;;;;;;17.33;97.19;101712.44;5132314;27;20180;-75
2021/09/02 10:53:13;;;;;;;11.77;8.37;;;;;;;17.63;96.06;101718.09;5122070;27;20172;-75
2021/09/02 10:55:47;;;;;;;17.53;9.03;;;;;;;17.75;97.60;101718.28;5132570;27;20173;-75
2021/09/02 10:58:32;;;;;;;10.00;8.93;;;;;;;17.66;95.62;101725.75;5132716;27;20176;-75
2021/09/02 11:00:58;;;;;;;9.73;8.60;;;;;;;17.62;97.44;101531.28;5130700;27;20172;-75
2021/09/02 11:03:25;;;;;;;10.63;9.60;;;;;;;17.70;98.24;101752.44;5133051;27;20287;-75
2021/09/02 11:05:57;;;;;;;13.10;9.33;;;;;;;17.69;96.26;101738.94;5132562;27;20247;-74
2021/09/02 11:08:33;;;;;;;11.87;9.67;;;;;;;17.86;97.17;101724.25;5132463;27;20172;-75
2021/09/02 11:11:19;;;;;;;8.93;8.13;;;;;;;17.87;96.44;101701.00;5132737;27;20153;-76